Time;durP1;ratioP1;P1;durP2;ratioP2;P2;SDS_P1;SDS_P2;PMS_P1;PMS_P2;Temp;Humidity;BMP_temperature;BMP_pressure;BME280_temperature;BME280_humidity;BME280_pressure;Samples;Min_cycle;Max_cycle;Signal;HPM_P1;HPM_P2
2023/03/28 00:01:36;;;;;;;;;;;;;;;28.97;74.28;101032.19;5054640;28;70636;-45
2023/03/28 00:04:10;;;;;;;;;;;;;;;28.93;76.59;101029.06;5051073;28;65370;-45
2023/03/28 00:06:46;;;;;;;;;;;;;;;28.98;76.75;101033.03;5048836;28;69261;-44
2023/03/28 00:09:16;;;;;;;;;;;;;;;28.99;76.33;101045.50;5047372;28;66371;-45
2023/03/28 00:11:47;;;;;;;;;;;;;;;28.98;76.51;101039.28;5048894;28;69775;-45
2023/03/28 00:14:17;;;;;;;;;;;;;;;29.00;77.25;101039.06;5046728;28;66710;-45
2023/03/28 00:16:47;;;;;;;;;;;;;;;29.05;72.64;101042.00;5049698;28;70724;-45
2023/03/28 00:19:19;;;;;;;;;;;;;;;29.13;70.97;101047.22;5083181;27;66352;-46
2023/03/28 00:21:50;;;;;;;;;;;;;;;29.20;69.37;101053.50;5085218;27;69604;-45
2023/03/28 00:24:20;;;;;;;;;;;;;;;29.28;68.74;101056.00;5048886;28;66124;-46
2023/03/28 00:26:53;;;;;;;;;;;;;;;29.35;68.52;101062.22;5045285;28;70264;-46
2023/03/28 00:29:24;;;;;;;;;;;;;;;29.42;68.44;101069.50;5082697;27;67043;-46
2023/03/28 00:31:55;;;;;;;;;;;;;;;29.47;67.57;101069.72;5050611;28;70334;-46
2023/03/28 00:34:25;;;;;;;;;;;;;;;29.53;67.80;101072.47;5050541;28;65926;-45
2023/03/28 00:36:56;;;;;;;;;;;;;;;29.58;67.64;101071.81;5051873;28;69681;-46
2023/03/28 00:39:28;;;;;;;;;;;;;;;29.62;67.13;101073.91;5049539;27;67565;-47
2023/03/28 00:42:02;;;;;;;;;;;;;;;29.67;67.22;101075.16;5048030;28;68829;-46
2023/03/28 00:44:52;;;;;;;;;;;;;;;29.69;66.92;101073.94;5054770;28;66341;-47
2023/03/28 00:47:25;;;;;;;;;;;;;;;29.75;67.21;101077.66;5041732;28;70102;-45
2023/03/28 00:50:20;;;;;;;;;;;;;;;29.76;66.50;101074.78;5052224;27;65807;-45
2023/03/28 00:53:00;;;;;;;;;;;;;;;29.80;65.71;101086.00;5125406;27;42889;-46
2023/03/28 00:55:35;;;;;;;;;;;;;;;29.83;65.44;101083.69;5113105;27;70311;-46
2023/03/28 00:58:09;;;;;;;;;;;;;;;29.85;65.55;101083.50;5103865;27;66156;-45
2023/03/28 01:00:45;;;;;;;;;;;;;;;29.88;65.01;101093.91;5085025;27;70508;-45
2023/03/28 01:03:17;;;;;;;;;;;;;;;29.90;64.74;101089.13;5109264;27;65540;-46
2023/03/28 01:05:48;;;;;;;;;;;;;;;29.93;64.68;101096.00;5109721;27;70401;-46
2023/03/28 01:08:28;;;;;;;;;;;;;;;29.94;64.76;101108.47;5095998;27;66848;-46
2023/03/28 01:10:59;;;;;;;;;;;;;;;29.96;64.43;101104.50;5125123;27;71082;-45
2023/03/28 01:13:33;;;;;;;;;;;;;;;29.98;64.35;101112.44;5110892;27;66385;-45
2023/03/28 01:16:05;;;;;;;;;;;;;;;30.01;64.09;101117.41;5091000;27;70703;-46
2023/03/28 01:18:40;;;;;;;;;;;;;;;30.03;64.03;101112.59;5113569;27;67060;-45
2023/03/28 01:21:13;;;;;;;;;;;;;;;30.05;63.62;101110.53;5114095;27;70817;-45
2023/03/28 01:24:04;;;;;;;;;;;;;;;29.91;63.37;101082.66;5113029;27;66018;-45
2023/03/28 01:26:47;;;;;;;;;;;;;;;30.10;63.82;101113.44;5086956;27;69882;-45
2023/03/28 01:29:37;;;;;;;;;;;;;;;30.12;63.04;101105.13;5076067;27;65323;-46
2023/03/28 01:32:12;;;;;;;;;;;;;;;30.12;63.50;101103.25;5074993;27;70976;-46
2023/03/28 01:35:35;;;;;;;;;;;;;;;30.16;62.81;101104.50;5084373;27;66555;-45
2023/03/28 01:38:06;;;;;;;;;;;;;;;30.19;63.27;101100.53;5091975;27;69319;-45
2023/03/28 01:40:43;;;;;;;;;;;;;;;30.22;62.96;101102.84;5076824;27;66565;-46
2023/03/28 01:43:32;;;;;;;;;;;;;;;30.22;62.84;101090.16;5092674;27;69741;-47
2023/03/28 01:46:17;;;;;;;;;;;;;;;30.26;63.02;101091.41;5073272;27;66873;-46
2023/03/28 01:49:10;;;;;;;;;;;;;;;30.29;62.65;101095.56;5091946;27;70135;-46
2023/03/28 01:51:50;;;;;;;;;;;;;;;30.30;62.58;101090.97;5074593;27;65515;-45
2023/03/28 01:54:23;;;;;;;;;;;;;;;30.34;62.19;101100.31;5092525;27;69543;-45
2023/03/28 01:57:11;;;;;;;;;;;;;;;30.36;62.50;101095.53;5094886;27;66251;-49
2023/03/28 01:59:49;;;;;;;;;;;;;;;30.38;61.97;101101.56;5095307;27;70354;-47
2023/03/28 02:02:31;;;;;;;;;;;;;;;30.39;62.31;101090.53;5083244;27;66368;-45
2023/03/28 02:05:12;;;;;;;;;;;;;;;30.42;62.11;101105.50;5078778;27;69850;-47
2023/03/28 02:07:45;;;;;;;;;;;;;;;30.45;62.28;101105.94;5059862;27;66378;-47
2023/03/28 02:10:18;;;;;;;;;;;;;;;30.47;62.13;101097.59;5061559;28;70020;-45
2023/03/28 02:12:59;;;;;;;;;;;;;;;30.49;62.48;101107.16;5044774;28;65796;-45
2023/03/28 02:15:53;;;;;;;;;;;;;;;30.53;62.26;101107.56;5094488;27;69843;-46
2023/03/28 02:18:35;;;;;;;;;;;;;;;30.57;61.95;101110.69;5079219;27;65585;-46
2023/03/28 02:22:01;;;;;;;;;;;;;;;30.59;61.71;101112.16;5074505;28;70938;-44
2023/03/28 02:24:31;;;;;;;;;;;;;;;30.62;61.63;101100.88;5078745;27;66882;-45
2023/03/28 02:27:11;;;;;;;;;;;;;;;30.65;61.50;101105.88;5095992;27;70286;-45
2023/03/28 02:29:53;;;;;;;;;;;;;;;30.67;61.94;101101.09;5064113;28;66798;-46
2023/03/28 02:32:36;;;;;;;;;;;;;;;30.70;61.58;101091.69;5063591;28;70269;-45
2023/03/28 02:35:07;;;;;;;;;;;;;;;30.73;61.68;101094.81;5063967;28;65548;-45
2023/03/28 02:37:38;;;;;;;;;;;;;;;30.76;61.52;101088.13;5094244;27;71968;-45
2023/03/28 02:40:12;;;;;;;;;;;;;;;30.79;61.08;101090.41;5064324;28;66336;-45
2023/03/28 02:42:46;;;;;;;;;;;;;;;30.82;61.10;101100.00;5080640;27;70294;-45
2023/03/28 02:45:19;;;;;;;;;;;;;;;30.85;61.15;101086.03;5078672;27;67276;-45
2023/03/28 02:47:49;;;;;;;;;;;;;;;30.88;61.10;101088.31;5079820;27;70545;-46
2023/03/28 02:50:25;;;;;;;;;;;;;;;30.90;61.15;101086.22;5078257;27;67801;-45
2023/03/28 02:53:03;;;;;;;;;;;;;;;30.93;60.74;101092.03;5057631;28;70324;-45
2023/03/28 02:55:34;;;;;;;;;;;;;;;30.96;60.83;101085.38;5091893;27;65257;-46
2023/03/28 02:58:39;;;;;;;;;;;;;;;30.98;60.89;101080.56;5047627;27;70145;-46
2023/03/28 03:01:13;;;;;;;;;;;;;;;31.02;61.14;101079.06;5076248;27;66575;-47
2023/03/28 03:03:44;;;;;;;;;;;;;;;31.04;61.01;101077.00;5054104;28;70151;-47
2023/03/28 03:06:16;;;;;;;;;;;;;;;31.07;60.33;101076.53;5081356;27;66144;-46
2023/03/28 03:08:46;;;;;;;;;;;;;;;31.11;60.75;101077.75;5080342;27;70379;-44
2023/03/28 03:11:17;;;;;;;;;;;;;;;31.12;60.67;101068.59;5081049;27;66708;-45
2023/03/28 03:13:48;;;;;;;;;;;;;;;31.16;60.21;101061.69;5095251;27;72053;-45
2023/03/28 03:16:19;;;;;;;;;;;;;;;31.20;60.18;101066.66;5077887;27;65478;-45
2023/03/28 03:18:49;;;;;;;;;;;;;;;31.23;60.13;101077.91;5060111;27;70144;-46
2023/03/28 03:21:20;;;;;;;;;;;;;;;31.25;60.12;101066.84;5059618;28;67082;-45
2023/03/28 03:23:51;;;;;;;;;;;;;;;31.28;60.22;101067.22;5059949;28;70847;-45
2023/03/28 03:26:21;;;;;;;;;;;;;;;31.31;59.58;101055.94;5093268;27;67438;-46
2023/03/28 03:29:01;;;;;;;;;;;;;;;31.34;59.68;101066.38;5057234;28;70034;-46
2023/03/28 03:31:32;;;;;;;;;;;;;;;31.38;59.83;101055.97;5061475;28;65697;-45
2023/03/28 03:34:08;;;;;;;;;;;;;;;31.41;59.74;101060.94;5081855;27;70404;-47
2023/03/28 03:36:44;;;;;;;;;;;;;;;31.43;59.52;101047.19;5061130;28;65968;-45
2023/03/28 03:39:14;;;;;;;;;;;;;;;31.46;59.18;101035.88;5060835;28;69562;-45
2023/03/28 03:41:45;;;;;;;;;;;;;;;31.48;59.62;101037.31;5092273;27;66092;-48
2023/03/28 03:44:15;;;;;;;;;;;;;;;31.52;59.49;101049.38;5078228;27;69814;-45
2023/03/28 03:46:46;;;;;;;;;;;;;;;31.54;59.22;101044.56;5060543;27;66392;-45
2023/03/28 03:49:16;;;;;;;;;;;;;;;31.56;58.89;101036.19;5085902;27;69931;-46
2023/03/28 03:51:47;;;;;;;;;;;;;;;31.58;58.48;101029.50;5059482;27;66684;-46
2023/03/28 03:54:17;;;;;;;;;;;;;;;31.62;58.34;101035.31;5079016;27;70591;-45
2023/03/28 03:56:47;;;;;;;;;;;;;;;31.65;58.25;101023.19;5058670;27;66645;-46
2023/03/28 03:59:18;;;;;;;;;;;;;;;31.66;58.19;101022.97;5061025;28;69765;-46
2023/03/28 04:01:50;;;;;;;;;;;;;;;31.69;58.29;101016.28;5060887;28;66046;-46
2023/03/28 04:04:40;;;;;;;;;;;;;;;31.71;58.10;101011.47;5066828;27;70189;-46
2023/03/28 04:07:36;;;;;;;;;;;;;;;31.73;57.81;101014.78;5068589;27;67245;-46
2023/03/28 04:10:11;;;;;;;;;;;;;;;31.75;57.82;101007.25;5093005;27;70610;-46
2023/03/28 04:12:41;;;;;;;;;;;;;;;31.76;57.92;101006.19;5076241;27;65599;-46
2023/03/28 04:15:12;;;;;;;;;;;;;;;31.79;57.65;100997.63;5067815;27;69972;-46
2023/03/28 04:18:03;;;;;;;;;;;;;;;31.80;57.77;100983.00;5088680;27;65398;-45
2023/03/28 04:20:42;;;;;;;;;;;;;;;31.83;57.95;100983.38;5076256;27;69846;-46
2023/03/28 04:23:12;;;;;;;;;;;;;;;31.86;57.85;100989.41;5075626;27;66435;-47
2023/03/28 04:25:43;;;;;;;;;;;;;;;31.87;57.77;100982.91;5057957;28;69183;-47
2023/03/28 04:28:26;;;;;;;;;;;;;;;31.90;57.76;100977.03;5061725;27;65286;-50
2023/03/28 04:31:04;;;;;;;;;;;;;;;31.93;57.61;100973.91;5051655;28;69153;-46
2023/03/28 04:34:04;;;;;;;;;;;;;;;31.95;57.62;100964.50;5074508;27;66610;-46
2023/03/28 04:36:42;;;;;;;;;;;;;;;31.97;57.56;100956.97;5060568;28;69732;-46
2023/03/28 04:39:14;;;;;;;;;;;;;;;31.99;57.53;100954.88;5059273;28;66872;-46
2023/03/28 04:42:07;;;;;;;;;;;;;;;32.02;57.30;100954.41;5075887;27;70591;-46
2023/03/28 04:44:57;;;;;;;;;;;;;;;32.04;57.40;100946.88;5070222;27;65927;-46
2023/03/28 04:47:27;;;;;;;;;;;;;;;32.06;57.00;100943.91;5056687;28;69978;-47
2023/03/28 04:49:58;;;;;;;;;;;;;;;32.10;57.28;100938.88;5094573;27;65925;-46
2023/03/28 04:52:33;;;;;;;;;;;;;;;32.13;57.21;100939.25;5035029;28;70349;-47
2023/03/28 04:55:04;;;;;;;;;;;;;;;32.16;57.10;100937.97;5075519;27;65706;-46
2023/03/28 04:57:37;;;;;;;;;;;;;;;32.19;57.03;100926.66;5057347;28;69351;-45
2023/03/28 05:00:09;;;;;;;;;;;;;;;32.22;56.88;100918.06;5056635;28;66578;-45
2023/03/28 05:03:12;;;;;;;;;;;;;;;32.25;56.64;100915.69;5052496;28;70658;-45
2023/03/28 05:05:52;;;;;;;;;;;;;;;32.28;56.72;100911.72;5059442;28;66053;-46
2023/03/28 05:08:26;;;;;;;;;;;;;;;32.31;56.75;100897.66;5054777;28;70010;-45
2023/03/28 05:10:57;;;;;;;;;;;;;;;32.34;56.57;100891.78;5058583;27;66725;-46
2023/03/28 05:13:28;;;;;;;;;;;;;;;32.37;56.36;100896.75;5059532;28;70260;-46
2023/03/28 05:16:07;;;;;;;;;;;;;;;32.40;56.41;100893.59;5054894;27;66931;-46
2023/03/28 05:19:09;;;;;;;;;;;;;;;32.43;56.12;100884.13;5052673;27;69936;-45
2023/03/28 05:21:59;;;;;;;;;;;;;;;32.45;56.15;100874.69;5052678;27;66444;-46
2023/03/28 05:24:30;;;;;;;;;;;;;;;32.47;56.03;100869.09;5089687;27;70285;-45
2023/03/28 05:27:03;;;;;;;;;;;;;;;32.52;55.95;100862.97;5060218;27;66894;-47
2023/03/28 05:29:33;;;;;;;;;;;;;;;32.55;56.05;100854.34;5093103;27;70427;-47
2023/03/28 05:32:06;;;;;;;;;;;;;;;32.57;55.89;100849.50;5058477;27;66063;-46
2023/03/28 05:34:36;;;;;;;;;;;;;;;32.60;55.76;100840.91;5076715;27;70189;-47
2023/03/28 05:37:07;;;;;;;;;;;;;;;32.63;55.50;100840.44;5070761;27;66875;-46
2023/03/28 05:39:45;;;;;;;;;;;;;;;32.52;55.45;100808.66;5064211;27;69750;-47
2023/03/28 05:42:16;;;;;;;;;;;;;;;32.69;55.55;100825.94;5088531;27;65707;-46
2023/03/28 05:44:46;;;;;;;;;;;;;;;32.71;55.56;100821.91;5061431;27;69866;-47
2023/03/28 05:47:17;;;;;;;;;;;;;;;32.75;55.37;100816.00;5081352;27;66631;-46
2023/03/28 05:49:47;;;;;;;;;;;;;;;32.77;55.23;100809.28;5080381;27;70177;-46
2023/03/28 05:52:21;;;;;;;;;;;;;;;32.80;55.11;100803.38;5058959;27;66658;-47
2023/03/28 05:54:52;;;;;;;;;;;;;;;32.83;54.88;100802.91;5075990;27;69777;-46
2023/03/28 05:57:22;;;;;;;;;;;;;;;32.85;55.13;100794.53;5076143;27;66406;-46
2023/03/28 05:59:53;;;;;;;;;;;;;;;32.87;55.07;100792.38;5093276;27;70020;-46
2023/03/28 06:02:25;;;;;;;;;;;;;;;32.91;55.05;100794.41;5058574;28;66874;-46
2023/03/28 06:04:57;;;;;;;;;;;;;;;32.94;54.71;100791.22;5059157;27;69934;-45
2023/03/28 06:07:29;;;;;;;;;;;;;;;32.96;54.82;100781.97;5079170;27;66228;-47
2023/03/28 06:10:14;;;;;;;;;;;;;;;32.98;54.64;100777.16;5092383;27;70688;-46
2023/03/28 06:12:56;;;;;;;;;;;;;;;33.01;54.60;100771.25;5060169;28;66901;-47
2023/03/28 06:15:26;;;;;;;;;;;;;;;33.05;54.57;100772.47;5061234;28;69810;-46
2023/03/28 06:17:56;;;;;;;;;;;;;;;33.08;54.50;100761.94;5063026;28;66926;-46
2023/03/28 06:20:27;;;;;;;;;;;;;;;33.11;54.29;100761.44;5062219;27;70411;-47
2023/03/28 06:22:57;;;;;;;;;;;;;;;33.15;54.14;100746.34;5079340;27;65941;-46
2023/03/28 06:25:27;;;;;;;;;;;;;;;33.19;54.28;100749.41;5057610;27;70000;-45
2023/03/28 06:27:58;;;;;;;;;;;;;;;33.22;54.15;100743.47;5060368;28;65471;-45
2023/03/28 06:30:30;;;;;;;;;;;;;;;33.24;54.15;100741.34;5095018;27;70157;-47
2023/03/28 06:33:01;;;;;;;;;;;;;;;33.28;54.02;100744.41;5059304;28;66431;-46
2023/03/28 06:35:32;;;;;;;;;;;;;;;33.32;54.22;100734.69;5065437;27;70103;-46
2023/03/28 06:38:03;;;;;;;;;;;;;;;33.34;53.95;100722.50;5079525;27;65939;-46
2023/03/28 06:40:33;;;;;;;;;;;;;;;33.39;53.87;100732.69;5094205;27;70670;-46
2023/03/28 06:43:04;;;;;;;;;;;;;;;33.43;54.17;100724.84;5059109;27;66624;-46
2023/03/28 06:45:47;;;;;;;;;;;;;;;33.48;53.67;100722.25;5062680;28;69431;-45
2023/03/28 06:48:19;;;;;;;;;;;;;;;33.52;53.68;100726.13;5080694;27;67906;-46
2023/03/28 06:51:09;;;;;;;;;;;;;;;33.56;53.92;100719.16;5078350;27;69837;-45
2023/03/28 06:53:40;;;;;;;;;;;;;;;33.60;54.05;100717.63;5062795;28;65795;-46
2023/03/28 06:56:10;;;;;;;;;;;;;;;33.64;53.68;100715.25;5061698;28;70630;-46
2023/03/28 06:58:41;;;;;;;;;;;;;;;33.67;53.56;100704.69;5060037;28;66692;-45
2023/03/28 07:01:12;;;;;;;;;;;;;;;33.71;53.37;100711.31;5055843;27;70339;-46
2023/03/28 07:04:12;;;;;;;;;;;;;;;33.77;53.60;100704.06;5071284;27;66598;-45
2023/03/28 07:06:45;;;;;;;;;;;;;;;33.82;53.47;100706.84;5056079;28;69830;-47
2023/03/28 07:09:15;;;;;;;;;;;;;;;33.85;53.42;100705.53;5056985;27;66067;-46
2023/03/28 07:11:52;;;;;;;;;;;;;;;33.90;53.31;100716.53;5058305;28;69663;-48
2023/03/28 07:14:23;;;;;;;;;;;;;;;33.93;53.05;100713.31;5061616;27;65650;-46
2023/03/28 07:16:54;;;;;;;;;;;;;;;33.97;53.10;100711.75;5060075;28;69688;-46
2023/03/28 07:19:26;;;;;;;;;;;;;;;34.02;53.18;100711.84;5062393;28;67034;-47
2023/03/28 07:21:57;;;;;;;;;;;;;;;34.06;53.11;100718.47;5060605;28;69953;-47
2023/03/28 07:24:27;;;;;;;;;;;;;;;34.08;52.91;100710.91;5076903;27;66254;-47
2023/03/28 07:27:05;;;;;;;;;;;;;;;34.15;52.93;100711.53;5060969;27;70416;-46
2023/03/28 07:29:45;;;;;;;;;;;;;;;34.19;52.85;100706.44;5055541;28;66865;-46
2023/03/28 07:32:15;;;;;;;;;;;;;;;34.22;53.22;100704.06;5076010;27;70244;-46
2023/03/28 07:34:46;;;;;;;;;;;;;;;34.25;52.91;100698.09;5080356;27;65498;-46
2023/03/28 07:37:24;;;;;;;;;;;;;;;34.30;53.12;100696.53;5060788;27;69773;-46
2023/03/28 07:40:09;;;;;;;;;;;;;;;34.35;52.58;100700.19;5060190;28;66808;-46
2023/03/28 07:42:41;;;;;;;;;;;;;;;34.38;52.63;100699.69;5093767;27;70094;-46
2023/03/28 07:45:12;;;;;;;;;;;;;;;34.44;52.53;100697.88;5095188;27;66130;-46
2023/03/28 07:47:42;;;;;;;;;;;;;;;34.48;52.37;100699.00;5056572;28;67069;-47
2023/03/28 07:50:13;;;;;;;;;;;;;;;34.51;52.34;100682.16;5076661;27;65480;-47
2023/03/28 07:52:45;;;;;;;;;;;;;;;34.54;52.39;100684.38;5092087;27;70280;-47
2023/03/28 07:55:15;;;;;;;;;;;;;;;34.58;52.40;100690.19;5078504;27;65338;-47
2023/03/28 07:57:50;;;;;;;;;;;;;;;34.62;52.33;100689.44;5095783;27;70376;-47
2023/03/28 08:00:41;;;;;;;;;;;;;;;34.66;52.21;100689.78;5071850;27;66955;-46
2023/03/28 08:03:31;;;;;;;;;;;;;;;34.72;52.40;100687.94;5080981;27;69323;-47
2023/03/28 08:06:02;;;;;;;;;;;;;;;34.75;52.54;100687.44;5092024;27;65921;-46
2023/03/28 08:08:41;;;;;;;;;;;;;;;34.79;52.42;100683.94;5044801;28;69713;-48
2023/03/28 08:11:21;;;;;;;;;;;;;;;34.82;51.91;100682.63;5074759;27;66071;-47
2023/03/28 08:13:52;;;;;;;;;;;;;;;34.87;52.30;100682.69;5060312;28;70516;-47
2023/03/28 08:16:23;;;;;;;;;;;;;;;34.90;51.65;100684.91;5060171;28;66980;-46
2023/03/28 08:18:55;;;;;;;;;;;;;;;34.93;51.86;100689.84;5054000;27;71509;-48
2023/03/28 08:21:49;;;;;;;;;;;;;;;34.97;51.81;100687.47;5073471;27;66395;-46
2023/03/28 08:24:19;;;;;;;;;;;;;;;35.01;51.54;100683.97;5050646;28;70261;-46
2023/03/28 08:27:07;;;;;;;;;;;;;;;35.05;52.08;100693.28;5089540;27;66651;-46
2023/03/28 08:29:38;;;;;;;;;;;;;;;35.10;51.87;100690.66;5041581;28;69597;-46
2023/03/28 08:32:08;;;;;;;;;;;;;;;35.12;51.93;100688.50;5060058;27;66095;-46
2023/03/28 08:34:40;;;;;;;;;;;;;;;35.17;51.69;100695.09;5076844;27;70029;-46
2023/03/28 08:37:16;;;;;;;;;;;;;;;35.20;51.36;100689.13;5076055;27;66779;-46
2023/03/28 08:39:48;;;;;;;;;;;;;;;35.24;51.21;100695.72;5059899;28;69769;-46
2023/03/28 08:42:28;;;;;;;;;;;;;;;35.26;51.06;100688.09;5058935;28;66704;-46
2023/03/28 08:45:04;;;;;;;;;;;;;;;35.30;51.45;100694.69;5089383;27;70692;-46
2023/03/28 08:47:55;;;;;;;;;;;;;;;35.35;50.86;100692.03;5076636;27;65790;-47
2023/03/28 08:50:32;;;;;;;;;;;;;;;35.38;51.51;100683.31;5067630;27;70243;-47
2023/03/28 08:53:03;;;;;;;;;;;;;;;35.43;51.17;100688.84;5069355;27;64779;-46
2023/03/28 08:55:39;;;;;;;;;;;;;;;35.46;51.21;100685.59;5076785;27;69923;-46
2023/03/28 08:58:19;;;;;;;;;;;;;;;35.49;51.05;100685.06;5073091;27;66640;-47
2023/03/28 09:00:51;;;;;;;;;;;;;;;35.53;51.03;100680.78;5076259;27;70872;-46
2023/03/28 09:03:23;;;;;;;;;;;;;;;35.57;50.94;100687.38;5088663;27;66273;-45
2023/03/28 09:06:03;;;;;;;;;;;;;;;35.61;50.77;100675.94;5086075;27;70062;-46
2023/03/28 09:08:37;;;;;;;;;;;;;;;35.64;50.09;100689.09;5055579;28;65611;-48
2023/03/28 09:11:13;;;;;;;;;;;;;;;35.68;50.58;100685.59;5060209;27;68787;-46
2023/03/28 09:14:01;;;;;;;;;;;;;;;35.71;50.09;100678.78;5080042;27;65907;-46
2023/03/28 09:16:36;;;;;;;;;;;;;;;35.75;50.47;100691.66;5061435;27;70596;-46
2023/03/28 09:19:32;;;;;;;;;;;;;;;35.69;51.40;100695.44;5096728;27;67067;-46
2023/03/28 09:22:56;;;;;;;;;;;;;;;35.33;52.75;100688.75;5051393;28;69728;-47
2023/03/28 09:25:48;;;;;;;;;;;;;;;35.12;53.65;100688.50;5094725;27;66761;-45
2023/03/28 09:28:25;;;;;;;;;;;;;;;35.02;54.36;100688.34;5062763;28;70611;-47
2023/03/28 09:30:57;;;;;;;;;;;;;;;34.95;54.82;100687.69;5054696;28;66707;-46
2023/03/28 09:33:37;;;;;;;;;;;;;;;34.89;54.72;100684.09;5087218;27;70514;-45
2023/03/28 09:36:11;;;;;;;;;;;;;;;34.84;55.05;100675.84;5094347;27;67084;-47
2023/03/28 09:38:47;;;;;;;;;;;;;;;34.81;54.81;100686.44;5063150;28;70104;-45
2023/03/28 09:41:24;;;;;;;;;;;;;;;34.78;54.94;100678.75;5059844;27;66988;-47
2023/03/28 09:44:27;;;;;;;;;;;;;;;34.74;55.33;100685.78;5075072;27;69374;-46
2023/03/28 09:47:29;;;;;;;;;;;;;;;34.71;55.21;100681.66;5079459;27;66864;-46
2023/03/28 09:50:06;;;;;;;;;;;;;;;34.70;55.82;100688.19;5077854;27;69436;-46
2023/03/28 09:52:45;;;;;;;;;;;;;;;34.68;56.19;100688.41;5096137;27;67022;-47
2023/03/28 09:55:28;;;;;;;;;;;;;;;34.66;56.26;100693.31;5060611;28;69204;-46
2023/03/28 09:58:08;;;;;;;;;;;;;;;34.61;55.95;100698.69;5061615;28;66636;-47
2023/03/28 10:01:22;;;;;;;;;;;;;;;34.59;56.15;100697.28;5069539;28;69143;-46
2023/03/28 10:04:17;;;;;;;;;;;;;;;34.57;56.76;100692.06;5078062;27;66951;-44
2023/03/28 10:07:08;;;;;;;;;;;;;;;34.56;56.34;100690.44;5076358;28;70211;-45
2023/03/28 10:09:51;;;;;;;;;;;;;;;34.56;56.48;100690.44;5042345;28;65625;-46
2023/03/28 10:12:30;;;;;;;;;;;;;;;34.53;56.89;100693.63;5071964;27;69964;-45
2023/03/28 10:15:01;;;;;;;;;;;;;;;34.55;56.54;100688.78;5080243;27;66048;-47
2023/03/28 10:17:49;;;;;;;;;;;;;;;34.53;56.80;100699.09;5075037;27;69826;-45
2023/03/28 10:20:30;;;;;;;;;;;;;;;34.50;57.09;100705.03;5092902;27;65799;-46
2023/03/28 10:23:00;;;;;;;;;;;;;;;34.49;57.59;100703.38;5057791;27;69855;-46
2023/03/28 10:25:41;;;;;;;;;;;;;;;34.48;58.56;100704.44;5057192;28;66336;-46
2023/03/28 10:28:16;;;;;;;;;;;;;;;34.43;57.82;100710.63;5079583;27;70490;-46
2023/03/28 10:30:56;;;;;;;;;;;;;;;34.38;57.34;100709.72;5075304;27;66234;-45
2023/03/28 10:33:31;;;;;;;;;;;;;;;34.22;56.90;100712.22;5074516;27;70276;-45
2023/03/28 10:36:22;;;;;;;;;;;;;;;34.13;58.00;100713.72;5057433;27;66549;-46
2023/03/28 10:38:53;;;;;;;;;;;;;;;34.10;58.03;100714.22;5091319;27;70409;-45
2023/03/28 10:41:53;;;;;;;;;;;;;;;34.09;58.15;100717.97;5058106;27;65484;-46
2023/03/28 10:44:57;;;;;;;;;;;;;;;34.08;58.24;100724.50;5074606;27;70521;-45
2023/03/28 10:47:30;;;;;;;;;;;;;;;34.06;58.36;100723.91;5074951;27;65153;-44
2023/03/28 10:50:19;;;;;;;;;;;;;;;34.01;58.50;100731.97;5075579;27;69968;-44
2023/03/28 10:52:58;;;;;;;;;;;;;;;33.97;58.72;100736.25;5074507;27;65708;-45
2023/03/28 10:55:37;;;;;;;;;;;;;;;33.94;58.49;100742.19;5058944;28;70897;-45
2023/03/28 10:58:55;;;;;;;;;;;;;;;33.96;58.82;100748.19;5075459;27;67257;-45
2023/03/28 11:01:34;;;;;;;;;;;;;;;33.92;59.27;100747.03;5057674;28;69938;-48
2023/03/28 11:04:34;;;;;;;;;;;;;;;34.17;57.94;100747.53;5059322;27;66574;-45
2023/03/28 11:07:09;;;;;;;;;;;;;;;34.37;57.42;100752.47;5092164;27;70571;-45
2023/03/28 11:10:43;;;;;;;;;;;;;;;34.51;56.72;100761.13;5020376;28;66368;-46
2023/03/28 11:13:42;;;;;;;;;;;;;;;34.59;56.15;100781.72;5009245;28;69861;-46
2023/03/28 11:16:16;;;;;;;;;;;;;;;34.66;55.84;100771.50;5060227;28;66932;-45
2023/03/28 11:19:33;;;;;;;;;;;;;;;34.69;56.00;100781.91;5074736;27;69082;-45
2023/03/28 11:22:19;;;;;;;;;;;;;;;34.69;55.43;100780.00;5076989;27;66092;-46
2023/03/28 11:24:53;;;;;;;;;;;;;;;34.75;55.71;100790.97;5090776;27;69377;-46
2023/03/28 11:27:58;;;;;;;;;;;;;;;34.75;55.31;100790.97;5015744;28;67040;-45
2023/03/28 11:30:33;;;;;;;;;;;;;;;34.77;55.66;100796.97;5066257;27;69790;-45
2023/03/28 11:34:01;;;;;;;;;;;;;;;34.74;55.29;100792.03;5072713;27;66906;-45
2023/03/28 11:36:54;;;;;;;;;;;;;;;34.73;55.53;100793.13;5067173;27;70096;-47
2023/03/28 11:39:30;;;;;;;;;;;;;;;34.73;56.09;100801.28;5077761;27;65741;-44
2023/03/28 11:42:05;;;;;;;;;;;;;;;34.73;55.75;100804.03;5059738;28;70176;-44
2023/03/28 11:44:44;;;;;;;;;;;;;;;34.71;55.87;100812.41;5090699;27;65975;-46
2023/03/28 11:47:20;;;;;;;;;;;;;;;34.69;56.16;100812.69;5090308;27;69242;-46
2023/03/28 11:50:00;;;;;;;;;;;;;;;34.67;56.80;100806.66;5077807;27;66586;-46
2023/03/28 11:52:54;;;;;;;;;;;;;;;34.66;56.29;100810.47;5076529;27;69253;-45
2023/03/28 11:55:31;;;;;;;;;;;;;;;34.64;56.53;100818.06;5093728;27;66422;-45
2023/03/28 11:58:21;;;;;;;;;;;;;;;34.62;57.13;100820.19;5058930;28;69982;-44
2023/03/28 12:00:58;;;;;;;;;;;;;;;34.58;57.21;100829.94;5073576;27;66582;-44
2023/03/28 12:03:29;;;;;;;;;;;;;;;34.56;57.43;100821.19;5074364;27;70284;-46
2023/03/28 12:06:03;;;;;;;;;;;;;;;34.55;57.25;100844.03;5058702;28;65876;-47
2023/03/28 12:08:50;;;;;;;;;;;;;;;34.53;57.54;100848.88;5094999;27;69388;-46
2023/03/28 12:11:38;;;;;;;;;;;;;;;34.52;56.87;100858.16;5095712;27;66865;-46
2023/03/28 12:14:12;;;;;;;;;;;;;;;34.48;57.04;100863.22;5062893;28;69682;-45
2023/03/28 12:16:50;;;;;;;;;;;;;;;34.44;57.08;100872.16;5062129;27;65821;-45
2023/03/28 12:19:32;;;;;;;;;;;;;;;34.41;57.26;100878.09;5042597;28;69089;-45
2023/03/28 12:22:33;;;;;;;;;;;;;;;34.36;57.47;100875.28;5060595;28;66697;-46
2023/03/28 12:25:28;;;;;;;;;;;;;;;34.30;57.52;100893.41;5034347;28;70569;-46
2023/03/28 12:28:09;;;;;;;;;;;;;;;34.29;57.73;100896.38;5057812;28;66063;-47
2023/03/28 12:31:03;;;;;;;;;;;;;;;34.28;57.52;100892.00;5060292;28;70172;-47
2023/03/28 12:33:53;;;;;;;;;;;;;;;34.23;57.72;100899.00;5090534;27;66146;-46
2023/03/28 12:36:50;;;;;;;;;;;;;;;34.20;57.70;100898.66;5077949;27;70315;-46
2023/03/28 12:39:33;;;;;;;;;;;;;;;34.17;57.86;100893.69;5045283;28;65490;-45
2023/03/28 12:42:12;;;;;;;;;;;;;;;34.13;58.00;100893.38;5083688;27;69731;-46
2023/03/28 12:44:59;;;;;;;;;;;;;;;34.08;58.70;100895.16;5057979;28;66960;-46
2023/03/28 12:47:51;;;;;;;;;;;;;;;33.94;59.15;100905.47;5054742;28;69913;-46
2023/03/28 12:50:21;;;;;;;;;;;;;;;33.89;59.70;100918.97;5077151;27;65930;-44
2023/03/28 12:52:55;;;;;;;;;;;;;;;33.88;59.89;100922.72;5072393;28;69529;-43
2023/03/28 12:55:36;;;;;;;;;;;;;;;33.83;60.59;100919.94;5090091;27;65798;-45
2023/03/28 12:58:23;;;;;;;;;;;;;;;33.77;60.97;100917.09;5092265;27;70538;-45
2023/03/28 13:01:23;;;;;;;;;;;;;;;33.71;61.27;100928.09;5079737;27;65960;-45
2023/03/28 13:04:11;;;;;;;;;;;;;;;33.67;61.38;100921.47;5072657;27;69933;-45
2023/03/28 13:07:11;;;;;;;;;;;;;;;33.68;61.39;100934.81;5057848;28;66936;-44
2023/03/28 13:09:45;;;;;;;;;;;;;;;33.67;61.72;100940.53;5046413;27;70503;-45
2023/03/28 13:12:42;;;;;;;;;;;;;;;33.63;61.41;100942.91;5059124;28;67145;-45
2023/03/28 13:15:12;;;;;;;;;;;;;;;33.50;60.26;100943.94;5061774;27;69470;-45
2023/03/28 13:17:47;;;;;;;;;;;;;;;33.46;59.93;100953.63;5079412;27;66555;-46
2023/03/28 13:20:17;;;;;;;;;;;;;;;33.33;59.20;100957.41;5081043;27;70208;-46
2023/03/28 13:22:59;;;;;;;;;;;;;;;33.27;59.74;100966.50;5078156;27;66244;-45
2023/03/28 13:25:31;;;;;;;;;;;;;;;33.12;59.43;100985.97;5079730;27;69106;-45
2023/03/28 13:28:10;;;;;;;;;;;;;;;33.10;59.58;100987.28;5075633;28;65083;-45
2023/03/28 13:30:45;;;;;;;;;;;;;;;33.09;59.32;100994.59;5076612;27;71017;-45
2023/03/28 13:33:23;;;;;;;;;;;;;;;33.05;59.40;100989.88;5058517;27;65104;-43
2023/03/28 13:35:56;;;;;;;;;;;;;;;33.01;59.11;100989.47;5091023;27;69671;-43